Time;durP1;ratioP1;P1;durP2;ratioP2;P2;SDS_P1;SDS_P2;PMS_P1;PMS_P2;Temp;Humidity;BMP_temperature;BMP_pressure;BME280_temperature;BME280_humidity;BME280_pressure;Samples;Min_cycle;Max_cycle;Signal;HPM_P1;HPM_P2
2022/02/14 00:01:02;;;;;;;9.98;3.38;;;;;;;21.33;12.06;98310.09;5005933;28;20034;-79
2022/02/14 00:03:28;;;;;;;10.40;3.13;;;;;;;20.99;12.32;98299.94;5010898;28;20034;-79
2022/02/14 00:05:54;;;;;;;6.68;2.88;;;;;;;20.59;12.68;98301.34;5009862;28;20065;-79
2022/02/14 00:08:20;;;;;;;7.10;2.65;;;;;;;20.85;12.70;98303.63;5003100;28;20038;-79
2022/02/14 00:10:46;;;;;;;8.82;3.15;;;;;;;21.08;12.53;98291.94;5009212;28;20023;-79
2022/02/14 00:13:12;;;;;;;6.65;2.67;;;;;;;20.83;13.04;98300.44;5004062;28;20363;-79
2022/02/14 00:15:38;;;;;;;6.47;2.78;;;;;;;20.69;13.09;98297.72;5004736;28;20038;-79
2022/02/14 00:18:05;;;;;;;6.78;3.30;;;;;;;20.66;12.89;98292.94;5008890;28;20028;-79
2022/02/14 00:20:31;;;;;;;8.40;2.90;;;;;;;20.51;13.31;98277.50;5005706;28;20505;-79
2022/02/14 00:22:57;;;;;;;5.53;2.50;;;;;;;19.96;13.74;98283.59;5005138;28;20057;-79
2022/02/14 00:25:23;;;;;;;6.40;2.83;;;;;;;19.88;13.90;98272.88;5011110;28;20037;-79
2022/02/14 00:27:49;;;;;;;7.15;2.65;;;;;;;19.83;14.23;98276.88;5010992;28;20033;-79
2022/02/14 00:30:15;;;;;;;5.90;3.30;;;;;;;19.87;14.25;98283.22;5010599;28;20033;-79
2022/02/14 00:32:41;;;;;;;6.18;2.83;;;;;;;19.58;14.55;98286.44;5011828;28;20069;-79
2022/02/14 00:35:10;;;;;;;9.18;3.38;;;;;;;20.16;14.30;98285.94;5010433;28;20087;-79
2022/02/14 00:37:37;;;;;;;5.32;2.60;;;;;;;20.40;14.18;98283.09;5008340;28;20076;-79
2022/02/14 00:40:03;;;;;;;7.40;3.92;;;;;;;20.77;13.78;98278.97;5007061;28;20057;-79
2022/02/14 00:42:30;;;;;;;5.20;3.00;;;;;;;21.18;13.58;98274.31;5006236;28;20053;-79
2022/02/14 00:44:56;;;;;;;6.50;3.70;;;;;;;21.16;13.61;98276.75;5004017;28;20037;-79
2022/02/14 00:47:22;;;;;;;6.15;2.50;;;;;;;21.43;13.43;98277.72;5008519;28;20109;-79
2022/02/14 00:49:48;;;;;;;6.32;4.03;;;;;;;21.48;13.37;98276.47;5005336;28;20092;-79
2022/02/14 00:52:14;;;;;;;6.55;2.95;;;;;;;21.21;13.50;98270.72;5010683;28;20049;-79
2022/02/14 00:54:42;;;;;;;9.32;3.88;;;;;;;21.49;13.43;98264.13;5013372;28;20405;-79
2022/02/14 00:57:09;;;;;;;6.32;3.45;;;;;;;21.48;13.24;98262.50;5011283;28;20029;-79
2022/02/14 00:59:35;;;;;;;6.70;2.95;;;;;;;21.38;13.47;98258.59;5006946;28;20494;-79
2022/02/14 01:02:02;;;;;;;4.47;2.60;;;;;;;21.35;13.45;98256.66;5010589;28;20034;-79
2022/02/14 01:04:28;;;;;;;7.47;3.13;;;;;;;21.09;13.76;98252.47;5009335;28;20042;-79
2022/02/14 01:06:54;;;;;;;4.93;2.60;;;;;;;21.09;13.99;98255.25;5007643;28;20413;-79
2022/02/14 01:09:21;;;;;;;5.18;2.55;;;;;;;21.06;14.10;98247.69;5006220;28;20030;-79
2022/02/14 01:11:47;;;;;;;8.13;3.63;;;;;;;21.12;14.03;98245.28;5005986;28;20061;-79
2022/02/14 01:14:14;;;;;;;6.57;2.83;;;;;;;21.12;14.00;98236.91;5007467;28;20478;-79
2022/02/14 01:16:40;;;;;;;4.50;2.85;;;;;;;21.47;13.89;98233.00;5004472;28;20143;-79
2022/02/14 01:19:06;;;;;;;5.78;2.78;;;;;;;21.26;13.97;98234.75;5002320;28;20034;-79
2022/02/14 01:21:32;;;;;;;6.90;2.78;;;;;;;21.07;14.02;98224.16;5008421;28;20065;-79
2022/02/14 01:23:58;;;;;;;5.03;2.75;;;;;;;21.18;14.16;98219.28;5007004;28;20049;-79
2022/02/14 01:26:24;;;;;;;7.30;3.08;;;;;;;20.65;14.63;98221.63;5004353;28;20036;-79
2022/02/14 01:28:50;;;;;;;5.72;3.22;;;;;;;21.12;14.25;98212.53;5007054;28;20033;-78
2022/02/14 01:31:17;;;;;;;5.20;3.17;;;;;;;20.89;14.31;98203.91;5005496;28;20073;-79
2022/02/14 01:33:43;;;;;;;5.88;3.28;;;;;;;20.88;14.46;98205.13;5006432;28;20088;-79
2022/02/14 01:36:09;;;;;;;6.50;3.45;;;;;;;20.90;14.48;98205.50;5010127;28;20105;-79
2022/02/14 01:38:35;;;;;;;6.45;2.88;;;;;;;21.18;14.29;98205.31;5004173;28;20544;-79
2022/02/14 01:41:01;;;;;;;7.63;2.95;;;;;;;20.91;14.37;98198.72;5000852;28;20450;-79
2022/02/14 01:43:27;;;;;;;6.28;3.33;;;;;;;21.45;14.02;98205.47;5005355;28;20026;-79
2022/02/14 01:45:53;;;;;;;5.97;2.60;;;;;;;21.31;14.05;98202.81;5006727;28;20048;-79
2022/02/14 01:48:19;;;;;;;8.35;2.83;;;;;;;21.46;13.83;98200.69;5008985;28;20037;-79
2022/02/14 01:50:47;;;;;;;7.85;2.92;;;;;;;21.29;14.15;98199.63;5002715;28;20039;-79
2022/02/14 01:53:14;;;;;;;4.95;2.63;;;;;;;21.42;14.02;98199.94;5007516;28;20442;-79
2022/02/14 01:55:41;;;;;;;3.78;2.20;;;;;;;21.58;13.78;98194.59;5003196;28;20072;-79
2022/02/14 01:58:08;;;;;;;4.40;2.78;;;;;;;21.61;13.93;98190.97;5006844;28;20037;-79
2022/02/14 02:00:36;;;;;;;4.80;2.42;;;;;;;21.89;13.64;98190.69;5005872;28;20060;-79
2022/02/14 02:03:03;;;;;;;5.78;3.22;;;;;;;21.94;13.63;98190.22;5002207;28;20029;-79
2022/02/14 02:05:29;;;;;;;5.95;2.30;;;;;;;21.68;13.70;98179.72;4998180;28;20076;-80
2022/02/14 02:07:55;;;;;;;3.65;2.83;;;;;;;21.66;13.77;98182.91;5004818;28;20140;-80
2022/02/14 02:10:22;;;;;;;4.82;2.22;;;;;;;21.61;13.87;98180.56;5000190;28;20045;-79
2022/02/14 02:12:58;;;;;;;6.15;3.00;;;;;;;21.49;13.88;98181.09;5010860;28;20022;-79
2022/02/14 02:15:24;;;;;;;5.43;2.47;;;;;;;21.44;13.99;98175.97;5006511;28;20029;-79
2022/02/14 02:17:51;;;;;;;4.82;2.65;;;;;;;21.71;13.67;98167.69;5000444;28;20030;-79
2022/02/14 02:20:18;;;;;;;5.78;2.78;;;;;;;21.74;13.74;98167.66;5002529;28;20030;-80
2022/02/14 02:22:46;;;;;;;5.25;2.72;;;;;;;21.57;13.89;98165.84;5002451;28;20479;-79
2022/02/14 02:25:14;;;;;;;5.75;2.85;;;;;;;21.62;13.77;98161.81;5005107;28;20038;-79
2022/02/14 02:27:42;;;;;;;5.40;2.78;;;;;;;21.34;14.19;98160.09;5016095;28;20038;-79
2022/02/14 02:30:10;;;;;;;7.65;3.30;;;;;;;21.53;13.70;98162.31;5006075;28;20053;-79
2022/02/14 02:32:37;;;;;;;5.50;3.25;;;;;;;21.25;14.06;98152.22;5009411;28;20473;-79
2022/02/14 02:35:06;;;;;;;6.82;2.80;;;;;;;20.40;15.04;98149.25;5003363;28;20044;-80
2022/02/14 02:37:32;;;;;;;5.40;2.65;;;;;;;20.09;15.03;98146.59;5013608;28;20033;-80
2022/02/14 02:39:59;;;;;;;5.72;3.08;;;;;;;19.83;15.35;98133.97;4999501;28;20034;-80
2022/02/14 02:42:25;;;;;;;7.00;3.35;;;;;;;20.11;14.95;98141.41;5015980;28;20049;-80
2022/02/14 02:44:53;;;;;;;10.32;3.72;;;;;;;20.29;14.88;98137.34;5008749;28;20037;-80
2022/02/14 02:47:21;;;;;;;6.65;3.45;;;;;;;20.06;15.00;98136.25;5004193;28;20030;-80
2022/02/14 02:49:48;;;;;;;8.27;3.70;;;;;;;19.86;15.27;98135.97;5004088;28;20034;-80
2022/02/14 02:52:16;;;;;;;5.57;2.97;;;;;;;19.66;15.53;98123.69;5004328;28;20495;-80
2022/02/14 02:54:44;;;;;;;8.95;3.40;;;;;;;19.21;15.85;98128.13;5003559;28;20030;-80
2022/02/14 02:57:11;;;;;;;9.60;4.32;;;;;;;19.13;16.18;98127.38;5003465;28;20049;-80
2022/02/14 02:59:39;;;;;;;8.57;3.28;;;;;;;19.40;15.99;98122.16;5007045;28;20049;-80
2022/02/14 03:02:07;;;;;;;5.82;3.10;;;;;;;19.47;16.15;98121.34;5001888;28;20030;-80
2022/02/14 03:04:33;;;;;;;10.57;4.10;;;;;;;19.15;16.74;98127.78;5009949;28;20038;-80
2022/02/14 03:07:00;;;;;;;9.93;4.15;;;;;;;19.81;16.03;98125.25;5003624;28;20117;-80
2022/02/14 03:09:26;;;;;;;6.15;3.13;;;;;;;19.99;15.78;98125.94;5014227;28;20112;-80
2022/02/14 03:11:54;;;;;;;7.82;3.47;;;;;;;19.70;16.33;98118.88;5006241;28;20021;-80
2022/02/14 03:14:20;;;;;;;8.40;3.95;;;;;;;19.66;16.40;98118.91;5000651;28;20034;-80
2022/02/14 03:16:46;;;;;;;5.85;3.58;;;;;;;20.27;15.64;98117.47;5011270;28;20034;-80
2022/02/14 03:19:13;;;;;;;9.55;3.92;;;;;;;20.68;15.28;98118.38;5005226;28;20062;-80
2022/02/14 03:21:39;;;;;;;6.95;3.40;;;;;;;20.60;15.44;98119.63;5005368;28;20042;-80
2022/02/14 03:24:06;;;;;;;11.02;4.03;;;;;;;20.83;15.28;98118.25;5012748;28;20096;-80
2022/02/14 03:26:33;;;;;;;7.25;2.75;;;;;;;20.69;15.23;98124.75;5008512;28;20107;-80
2022/02/14 03:28:59;;;;;;;7.25;3.40;;;;;;;20.63;15.35;98116.00;5017888;28;20030;-80
2022/02/14 03:31:26;;;;;;;6.40;3.40;;;;;;;20.57;15.47;98114.06;5005964;28;20031;-80
2022/02/14 03:33:52;;;;;;;6.57;4.07;;;;;;;20.82;15.36;98123.03;5004299;28;20041;-80
2022/02/14 03:36:20;;;;;;;5.88;3.63;;;;;;;20.51;15.39;98116.50;5001467;28;20038;-80
2022/02/14 03:38:47;;;;;;;7.45;3.20;;;;;;;20.73;15.30;98122.72;5008600;28;20385;-80
2022/02/14 03:41:14;;;;;;;6.07;4.05;;;;;;;20.51;15.37;98119.28;5005685;28;20453;-80
2022/02/14 03:43:40;;;;;;;6.90;4.00;;;;;;;21.06;15.17;98121.28;5008751;28;20041;-80
2022/02/14 03:46:07;;;;;;;7.57;3.65;;;;;;;20.78;15.09;98122.28;5003587;28;20442;-80
2022/02/14 03:48:34;;;;;;;5.90;3.17;;;;;;;21.03;14.84;98124.84;5010464;28;20032;-80
2022/02/14 03:51:00;;;;;;;8.82;3.97;;;;;;;21.36;14.46;98118.56;4999768;28;20053;-80
2022/02/14 03:53:26;;;;;;;10.65;3.47;;;;;;;21.28;14.43;98117.09;5001961;28;20061;-80
2022/02/14 03:55:52;;;;;;;7.90;3.30;;;;;;;21.52;14.16;98115.25;5009115;28;20499;-80
2022/02/14 03:58:19;;;;;;;8.05;4.63;;;;;;;21.95;13.54;98117.13;5007714;28;20437;-80
2022/02/14 04:00:45;;;;;;;9.77;4.57;;;;;;;22.14;13.36;98117.69;5011788;28;20062;-80
2022/02/14 04:03:11;;;;;;;10.02;5.32;;;;;;;22.08;13.31;98119.38;5010471;28;20506;-80
2022/02/14 04:05:37;;;;;;;7.75;3.38;;;;;;;21.93;13.49;98119.56;5005786;28;20546;-80
2022/02/14 04:08:04;;;;;;;11.77;4.45;;;;;;;21.77;13.67;98121.31;5008586;28;20034;-80
2022/02/14 04:10:30;;;;;;;8.07;3.35;;;;;;;21.67;13.94;98120.25;5005364;28;20101;-80
2022/02/14 04:12:57;;;;;;;7.40;3.60;;;;;;;21.68;13.89;98121.03;5013075;28;20061;-80
2022/02/14 04:15:23;;;;;;;7.88;3.10;;;;;;;21.72;14.01;98124.56;5001813;28;20483;-80
2022/02/14 04:17:49;;;;;;;11.85;4.85;;;;;;;21.50;13.87;98132.41;5009889;28;20033;-80
2022/02/14 04:20:16;;;;;;;10.95;4.40;;;;;;;21.22;13.80;98122.31;5009945;28;20034;-80
2022/02/14 04:22:42;;;;;;;12.13;4.63;;;;;;;21.21;13.75;98119.94;5004713;28;20088;-80
2022/02/14 04:25:10;;;;;;;17.52;7.22;;;;;;;21.10;13.60;98122.03;5008349;28;20037;-80
2022/02/14 04:27:37;;;;;;;17.65;6.57;;;;;;;20.90;13.75;98119.00;5005159;28;20100;-80
2022/02/14 04:30:04;;;;;;;14.98;5.72;;;;;;;21.05;13.48;98114.88;5008144;28;20025;-80
2022/02/14 04:32:31;;;;;;;19.98;7.75;;;;;;;20.51;13.62;98119.28;5011937;28;20045;-80
2022/02/14 04:34:57;;;;;;;18.13;7.25;;;;;;;20.25;13.74;98116.28;5005788;28;20025;-80
2022/02/14 04:37:23;;;;;;;15.48;7.03;;;;;;;20.14;13.71;98119.09;5007668;28;20085;-80
2022/02/14 04:39:49;;;;;;;20.67;8.82;;;;;;;19.88;13.83;98114.06;5002324;28;20034;-80
2022/02/14 04:42:15;;;;;;;20.23;8.85;;;;;;;19.86;13.98;98113.69;5009460;28;20034;-80
2022/02/14 04:44:41;;;;;;;32.03;10.52;;;;;;;19.68;14.08;98105.38;5007298;28;20031;-80
2022/02/14 04:47:07;;;;;;;25.92;10.57;;;;;;;19.80;13.85;98101.34;5006846;28;20084;-80
2022/02/14 04:49:33;;;;;;;22.13;9.52;;;;;;;19.55;14.03;98115.38;4998682;28;20034;-80
2022/02/14 04:52:00;;;;;;;25.45;10.48;;;;;;;19.25;14.35;98113.00;5003380;28;20547;-80
2022/02/14 04:54:26;;;;;;;21.40;8.82;;;;;;;19.27;14.32;98107.88;5003275;28;20041;-80
2022/02/14 04:56:52;;;;;;;17.95;6.63;;;;;;;18.90;15.40;98106.72;5002670;28;20037;-80
2022/02/14 04:59:18;;;;;;;14.60;5.95;;;;;;;18.91;15.30;98099.94;5003000;28;20453;-80
2022/02/14 05:01:45;;;;;;;12.88;4.88;;;;;;;19.09;15.54;98112.66;5006753;28;20063;-80
2022/02/14 05:04:11;;;;;;;9.63;4.68;;;;;;;19.28;15.37;98103.06;5005422;28;20049;-80
2022/02/14 05:06:37;;;;;;;9.35;4.15;;;;;;;19.51;15.38;98105.44;5005856;28;20041;-80
2022/02/14 05:09:03;;;;;;;13.07;4.40;;;;;;;19.63;15.27;98104.97;5014372;28;20026;-80
2022/02/14 05:11:29;;;;;;;10.77;4.47;;;;;;;19.81;14.97;98109.28;5001453;28;20042;-80
2022/02/14 05:13:55;;;;;;;13.07;5.45;;;;;;;19.24;15.54;98108.66;5009046;28;20030;-80
2022/02/14 05:16:24;;;;;;;14.60;5.13;;;;;;;19.55;15.27;98109.81;5006366;28;20030;-80
2022/02/14 05:18:51;;;;;;;16.73;4.80;;;;;;;19.74;14.77;98117.66;5003987;28;20018;-80
2022/02/14 05:21:17;;;;;;;6.80;3.75;;;;;;;19.71;15.06;98115.72;5000896;28;20042;-80
2022/02/14 05:23:43;;;;;;;8.95;4.35;;;;;;;19.87;15.14;98112.47;5004998;28;20402;-79
2022/02/14 05:26:10;;;;;;;9.68;4.43;;;;;;;19.75;15.20;98115.69;5002204;28;20042;-80
2022/02/14 05:28:36;;;;;;;11.00;4.80;;;;;;;19.48;15.34;98112.63;5008292;28;20026;-80
2022/02/14 05:31:02;;;;;;;12.57;5.60;;;;;;;19.03;15.50;98107.91;5006798;28;20490;-80
2022/02/14 05:33:29;;;;;;;13.43;5.22;;;;;;;17.90;16.72;98121.63;5000363;28;20383;-80
2022/02/14 05:35:55;;;;;;;13.63;5.47;;;;;;;17.86;17.03;98115.28;5007398;28;20429;-80
2022/02/14 05:38:21;;;;;;;10.20;4.72;;;;;;;17.80;17.03;98122.41;5006183;28;20079;-80
2022/02/14 05:40:47;;;;;;;11.57;5.95;;;;;;;17.78;16.97;98122.00;4997360;28;20322;-80
2022/02/14 05:43:14;;;;;;;13.93;5.68;;;;;;;17.44;17.90;98117.81;5009119;28;20482;-80
2022/02/14 05:45:40;;;;;;;14.35;5.43;;;;;;;18.17;17.30;98119.34;5005360;28;20398;-79
2022/02/14 05:48:06;;;;;;;8.63;4.25;;;;;;;18.52;17.09;98113.88;5005935;28;20030;-80
2022/02/14 05:50:33;;;;;;;7.55;3.88;;;;;;;18.93;16.80;98119.81;5001690;28;20030;-80
2022/02/14 05:52:59;;;;;;;11.73;5.03;;;;;;;18.37;17.73;98124.13;5003847;28;20387;-80
2022/02/14 05:55:25;;;;;;;7.68;4.22;;;;;;;18.52;17.46;98123.00;5005132;28;20498;-80
2022/02/14 05:57:52;;;;;;;13.93;6.32;;;;;;;18.59;17.31;98125.81;5002575;28;20031;-80
2022/02/14 06:00:19;;;;;;;10.63;4.65;;;;;;;19.54;16.51;98116.56;5007575;28;20022;-80
2022/02/14 06:02:45;;;;;;;7.10;4.18;;;;;;;19.66;16.38;98123.69;5012326;28;20486;-80
2022/02/14 06:05:11;;;;;;;9.85;4.55;;;;;;;20.07;16.01;98126.72;5003370;28;20042;-80
2022/02/14 06:07:38;;;;;;;9.23;4.68;;;;;;;19.66;16.43;98123.69;5008898;28;20110;-81
2022/02/14 06:10:04;;;;;;;7.93;4.90;;;;;;;19.67;16.54;98119.72;5010026;28;20030;-80
2022/02/14 06:12:30;;;;;;;6.95;3.45;;;;;;;19.79;16.53;98127.63;5005879;28;20034;-80
2022/02/14 06:14:58;;;;;;;9.85;4.60;;;;;;;19.25;16.90;98115.03;5011067;28;20076;-80
2022/02/14 06:17:24;;;;;;;6.63;4.45;;;;;;;19.32;17.07;98117.81;5006491;28;20111;-80
2022/02/14 06:19:50;;;;;;;8.70;4.43;;;;;;;19.81;16.57;98120.44;5006628;28;20493;-81
2022/02/14 06:22:17;;;;;;;9.77;4.57;;;;;;;19.87;16.61;98129.19;5006356;28;20042;-81
2022/02/14 06:24:43;;;;;;;8.48;4.35;;;;;;;20.27;16.41;98123.03;5007132;28;20034;-81
2022/02/14 06:27:09;;;;;;;7.22;4.18;;;;;;;20.49;16.04;98118.91;5006160;28;20037;-81
2022/02/14 06:29:35;;;;;;;10.73;4.40;;;;;;;20.44;16.20;98121.34;5006412;28;20025;-81
2022/02/14 06:32:01;;;;;;;6.45;3.63;;;;;;;21.02;15.64;98121.28;5004073;28;20065;-81
2022/02/14 06:34:27;;;;;;;7.20;3.95;;;;;;;21.29;15.32;98122.25;5002482;28;20109;-81
2022/02/14 06:36:53;;;;;;;6.97;3.97;;;;;;;21.22;15.44;98111.13;5003827;28;20060;-81
2022/02/14 06:39:19;;;;;;;9.43;4.15;;;;;;;21.88;14.91;98111.63;5018514;28;20047;-82
2022/02/14 06:41:46;;;;;;;8.32;3.67;;;;;;;20.97;15.91;98124.50;5007393;28;20104;-81
2022/02/14 06:44:13;;;;;;;6.85;3.78;;;;;;;21.84;15.09;98112.88;5016105;28;20081;-82
2022/02/14 06:46:39;;;;;;;5.90;3.67;;;;;;;22.35;14.56;98104.19;5005281;28;20513;-80
2022/02/14 06:49:06;;;;;;;10.82;5.53;;;;;;;22.31;14.55;98105.47;5014941;28;20397;-81
2022/02/14 06:51:35;;;;;;;7.30;3.83;;;;;;;22.91;14.27;98112.94;5008720;28;20053;-80
2022/02/14 06:54:02;;;;;;;7.55;3.88;;;;;;;22.99;14.20;98109.59;5006614;28;20033;-80
2022/02/14 06:56:28;;;;;;;8.23;3.80;;;;;;;22.60;14.56;98106.63;5005455;28;20057;-81
2022/02/14 06:58:54;;;;;;;7.68;3.78;;;;;;;22.17;15.03;98109.22;5014555;28;20037;-81
2022/02/14 07:01:20;;;;;;;8.98;4.03;;;;;;;21.96;15.09;98115.13;5011588;28;20043;-81
2022/02/14 07:03:48;;;;;;;6.47;4.00;;;;;;;21.71;15.66;98103.41;5015403;28;20390;-81
2022/02/14 07:06:15;;;;;;;5.75;3.60;;;;;;;21.62;15.46;98109.50;5003512;28;20073;-79
2022/02/14 07:08:42;;;;;;;10.75;5.75;;;;;;;21.50;15.50;98112.03;5008420;28;20120;-80
2022/02/14 07:11:08;;;;;;;11.93;4.93;;;;;;;21.50;15.83;98106.44;5012222;28;20034;-80
2022/02/14 07:13:34;;;;;;;6.68;4.10;;;;;;;21.23;16.11;98115.53;5012627;28;20030;-80
2022/02/14 07:16:00;;;;;;;9.48;4.38;;;;;;;20.50;16.89;98112.13;5013151;28;20496;-80
2022/02/14 07:18:28;;;;;;;6.53;4.07;;;;;;;20.55;16.93;98120.06;5013315;28;20032;-80
2022/02/14 07:20:55;;;;;;;11.40;3.65;;;;;;;20.85;16.81;98118.63;5013846;28;20034;-79
2022/02/14 07:23:21;;;;;;;6.57;3.50;;;;;;;22.04;15.69;98111.03;5008125;28;20537;-80
2022/02/14 07:25:47;;;;;;;7.10;3.80;;;;;;;22.74;14.90;98102.81;5007409;28;20030;-80
2022/02/14 07:28:13;;;;;;;8.63;3.72;;;;;;;22.17;15.62;98106.44;5017040;28;20530;-81
2022/02/14 07:30:39;;;;;;;6.65;4.20;;;;;;;21.60;15.83;98105.56;5022235;28;20404;-81
2022/02/14 07:33:05;;;;;;;8.90;4.93;;;;;;;21.42;16.21;98110.56;5017014;28;20509;-79
2022/02/14 07:35:31;;;;;;;7.47;3.92;;;;;;;22.01;15.85;98097.88;5016882;28;20061;-79
2022/02/14 07:37:58;;;;;;;7.10;4.05;;;;;;;21.80;16.18;98098.91;5013888;28;20465;-79
2022/02/14 07:40:29;;;;;;;6.63;4.07;;;;;;;21.92;16.08;98103.19;5016205;28;20080;-79
2022/02/14 07:42:55;;;;;;;9.32;4.32;;;;;;;21.40;16.37;98096.97;5014377;28;20023;-79
2022/02/14 07:45:23;;;;;;;7.82;4.13;;;;;;;21.33;16.77;98099.88;5013699;28;20030;-80
2022/02/14 07:47:49;;;;;;;8.40;3.92;;;;;;;20.67;16.93;98097.25;5009268;28;20054;-79
2022/02/14 07:50:17;;;;;;;7.00;3.90;;;;;;;21.03;16.84;98096.94;5016730;28;20045;-80
2022/02/14 07:52:43;;;;;;;8.07;4.88;;;;;;;21.00;16.90;98101.38;5014712;28;20089;-80
2022/02/14 07:55:09;;;;;;;8.30;4.70;;;;;;;21.94;15.96;98092.38;5013738;28;20061;-79
2022/02/14 07:57:36;;;;;;;6.50;4.13;;;;;;;21.60;16.37;98103.56;5005262;28;20502;-79
2022/02/14 08:00:03;;;;;;;8.52;4.75;;;;;;;21.99;16.38;98095.50;5007163;28;20433;-79
2022/02/14 08:02:29;;;;;;;9.70;4.93;;;;;;;22.13;15.51;98091.72;5010670;28;20038;-79
2022/02/14 08:04:56;;;;;;;7.70;4.45;;;;;;;21.02;16.88;98100.94;5011217;28;20034;-79
2022/02/14 08:07:22;;;;;;;9.93;3.88;;;;;;;21.97;16.22;98100.72;5005801;28;20054;-79
2022/02/14 08:09:48;;;;;;;7.13;4.15;;;;;;;21.69;16.48;98092.66;5015726;28;20030;-79
2022/02/14 08:12:14;;;;;;;6.90;4.00;;;;;;;22.84;15.33;98099.88;5013109;28;20509;-79
2022/02/14 08:14:42;;;;;;;7.85;4.80;;;;;;;22.51;15.68;98097.97;5003610;28;20035;-79
2022/02/14 08:17:08;;;;;;;7.47;4.47;;;;;;;22.89;14.82;98093.00;5007433;28;20545;-79
2022/02/14 08:19:34;;;;;;;7.15;3.63;;;;;;;23.35;15.35;98084.56;5012746;28;20091;-79
2022/02/14 08:22:00;;;;;;;6.00;3.78;;;;;;;23.54;15.04;98089.41;5011886;28;20443;-79
2022/02/14 08:24:27;;;;;;;6.85;3.72;;;;;;;23.23;15.14;98088.78;5013544;28;20489;-79
2022/02/14 08:26:53;;;;;;;5.85;3.83;;;;;;;22.95;15.37;98091.28;5011952;28;20091;-79
2022/02/14 08:29:20;;;;;;;5.85;3.53;;;;;;;23.24;15.39;98093.13;5013596;28;20294;-79
2022/02/14 08:31:46;;;;;;;5.80;3.92;;;;;;;23.45;15.20;98089.19;5018122;28;20037;-79
2022/02/14 08:34:14;;;;;;;7.60;4.22;;;;;;;24.12;14.37;98082.22;5014465;28;20109;-79
2022/02/14 08:36:40;;;;;;;4.70;3.00;;;;;;;24.38;14.13;98086.06;5012999;28;20044;-79
2022/02/14 08:39:06;;;;;;;6.18;3.85;;;;;;;24.48;14.01;98076.59;5007454;28;20107;-79
2022/02/14 08:41:32;;;;;;;6.57;3.83;;;;;;;24.52;14.47;98077.28;5005055;28;20045;-80
2022/02/14 08:43:59;;;;;;;4.55;3.60;;;;;;;23.59;15.31;98072.09;5008240;28;20045;-80
2022/02/14 08:46:26;;;;;;;4.80;3.10;;;;;;;24.06;14.41;98075.56;5010486;28;20397;-79
2022/02/14 08:48:53;;;;;;;5.28;2.92;;;;;;;24.56;14.51;98075.97;5010415;28;20035;-79
2022/02/14 08:51:21;;;;;;;4.75;3.35;;;;;;;24.73;13.96;98073.97;5014552;28;20502;-80
2022/02/14 08:53:49;;;;;;;6.47;3.13;;;;;;;24.78;14.40;98067.88;5009388;28;20044;-80
2022/02/14 08:56:15;;;;;;;10.68;3.50;;;;;;;25.28;14.07;98067.34;5006307;28;20393;-80
2022/02/14 08:58:42;;;;;;;6.10;3.20;;;;;;;24.61;13.85;98069.06;5005065;28;20038;-79
2022/02/14 09:01:11;;;;;;;11.10;4.95;;;;;;;24.70;14.27;98069.22;5016230;28;20026;-79
2022/02/14 09:03:41;;;;;;;9.23;4.45;;;;;;;25.14;14.01;98068.53;5009048;28;20029;-79
2022/02/14 09:06:08;;;;;;;10.63;4.63;;;;;;;24.24;14.60;98058.31;5005522;28;20127;-79
2022/02/14 09:08:34;;;;;;;5.25;3.42;;;;;;;24.12;14.93;98053.38;5019258;28;20032;-79
2022/02/14 09:11:00;;;;;;;7.85;3.97;;;;;;;24.08;15.00;98066.69;5010383;28;20042;-79
2022/02/14 09:13:33;;;;;;;5.97;3.45;;;;;;;24.52;14.69;98066.06;5012336;28;20041;-79
2022/02/14 09:16:04;;;;;;;5.80;3.30;;;;;;;24.41;14.52;98065.53;5004484;28;20406;-79
2022/02/14 09:18:34;;;;;;;;;;;;;;;24.17;14.47;98062.06;5012270;28;20462;-79
2022/02/14 09:21:01;;;;;;;8.10;4.07;;;;;;;24.19;14.66;98051.19;5010806;28;19921;-79
2022/02/14 09:23:28;;;;;;;5.88;3.17;;;;;;;24.46;14.52;98065.00;5009237;28;20025;-79
2022/02/14 09:25:54;;;;;;;8.70;4.30;;;;;;;24.65;14.41;98061.31;5016017;28;20049;-79
2022/02/14 09:28:20;;;;;;;5.88;3.70;;;;;;;25.05;14.15;98056.34;5006317;28;20548;-79
2022/02/14 09:30:46;;;;;;;6.28;3.47;;;;;;;25.47;13.87;98057.22;5012131;28;20502;-79
2022/02/14 09:33:12;;;;;;;6.55;3.30;;;;;;;25.35;13.92;98053.09;5003498;28;20376;-79
2022/02/14 09:35:38;;;;;;;9.82;3.15;;;;;;;25.61;13.78;98054.03;5010857;28;20034;-79
2022/02/14 09:38:06;;;;;;;7.72;4.03;;;;;;;24.78;14.18;98055.84;5008264;28;20560;-79
2022/02/14 09:40:33;;;;;;;8.05;4.18;;;;;;;25.14;14.21;98050.88;5006246;28;20108;-79
2022/02/14 09:43:01;;;;;;;6.15;3.50;;;;;;;25.37;13.62;98048.63;5005901;28;20360;-79
2022/02/14 09:45:29;;;;;;;6.70;3.50;;;;;;;24.55;14.18;98051.16;5008362;28;20056;-79
2022/02/14 09:47:59;;;;;;;5.88;3.67;;;;;;;24.76;14.12;98052.66;5004241;28;20034;-79
2022/02/14 09:50:26;;;;;;;6.40;3.53;;;;;;;25.31;13.78;98050.41;5007672;28;20030;-79
2022/02/14 09:52:52;;;;;;;4.85;3.30;;;;;;;25.15;14.03;98041.22;5007652;28;20038;-79
2022/02/14 09:55:19;;;;;;;4.50;3.13;;;;;;;25.65;14.08;98046.28;5009285;28;20037;-79
2022/02/14 09:57:46;;;;;;;3.72;2.92;;;;;;;25.49;13.75;98044.31;5014560;28;20041;-79
2022/02/14 10:00:12;;;;;;;16.45;4.18;;;;;;;24.88;13.78;98037.94;5003432;28;20111;-79
2022/02/14 10:02:39;;;;;;;11.93;4.07;;;;;;;24.16;14.74;98040.84;5004721;28;20038;-79
2022/02/14 10:05:18;;;;;;;7.18;3.53;;;;;;;24.21;14.57;98045.94;5005111;28;20037;-79
2022/02/14 10:07:49;;;;;;;4.03;3.40;;;;;;;24.04;15.24;98039.47;5001670;28;20045;-79
2022/02/14 10:10:16;;;;;;;8.20;3.92;;;;;;;23.93;15.03;98038.13;5009712;28;20046;-78
2022/02/14 10:12:46;;;;;;;5.47;3.08;;;;;;;24.46;14.93;98036.94;5006879;28;20030;-79
2022/02/14 10:15:14;;;;;;;6.88;3.40;;;;;;;24.73;14.32;98032.66;5005118;28;20172;-79
2022/02/14 10:17:43;;;;;;;7.90;4.25;;;;;;;24.64;14.85;98040.88;5004479;28;20034;-79
2022/02/14 10:20:11;;;;;;;6.57;3.40;;;;;;;24.22;15.00;98036.31;5009201;28;20040;-79
2022/02/14 10:22:58;;;;;;;11.45;3.67;;;;;;;25.19;14.44;98033.47;5012595;28;20038;-78
2022/02/14 10:25:28;;;;;;;6.40;3.38;;;;;;;25.38;14.37;98027.72;5007388;28;20041;-79
2022/02/14 10:28:11;;;;;;;5.88;3.40;;;;;;;24.88;14.13;98032.31;4999505;28;20038;-79
2022/02/14 10:31:01;;;;;;;4.68;3.67;;;;;;;24.43;14.35;98027.41;5009674;28;20502;-78
2022/02/14 10:33:47;;;;;;;7.10;4.70;;;;;;;24.62;14.45;98025.72;5010584;28;20038;-79
2022/02/14 10:36:22;;;;;;;7.82;3.90;;;;;;;24.89;14.69;98028.28;5008685;28;20033;-79
2022/02/14 10:38:48;;;;;;;5.15;3.70;;;;;;;24.88;14.38;98023.91;5001970;28;20044;-79
2022/02/14 10:41:14;;;;;;;5.30;3.28;;;;;;;23.76;15.49;98019.66;5005423;28;20063;-79
2022/02/14 10:43:41;;;;;;;6.25;3.70;;;;;;;25.03;14.29;98019.47;5015221;28;20543;-79
2022/02/14 10:46:16;;;;;;;7.70;4.70;;;;;;;25.08;14.14;98014.13;5008648;28;20080;-79
2022/02/14 10:48:44;;;;;;;6.78;3.75;;;;;;;25.82;13.82;97999.97;5004322;28;20030;-79
2022/02/14 10:51:17;;;;;;;6.22;4.10;;;;;;;25.87;13.30;97994.59;5008347;28;20184;-79
2022/02/14 10:53:49;;;;;;;7.47;3.15;;;;;;;26.18;13.55;97994.84;5004461;28;20080;-79
2022/02/14 10:56:18;;;;;;;6.65;3.80;;;;;;;25.79;13.64;97993.22;5002396;28;20100;-79
2022/02/14 10:58:48;;;;;;;7.93;4.30;;;;;;;25.82;14.05;97999.97;5004613;28;20520;-79
2022/02/14 11:01:16;;;;;;;6.88;3.67;;;;;;;26.09;12.98;97995.47;5004944;28;20042;-79
2022/02/14 11:03:43;;;;;;;7.05;3.78;;;;;;;25.89;13.52;97997.72;5008469;28;20050;-79
2022/02/14 11:06:11;;;;;;;7.50;4.55;;;;;;;25.58;13.30;97991.03;5008529;28;20037;-79
2022/02/14 11:08:41;;;;;;;5.97;3.40;;;;;;;26.21;13.79;97984.72;4998570;28;20037;-79
2022/02/14 11:11:10;;;;;;;8.00;4.28;;;;;;;25.31;13.79;97985.75;5009711;28;20037;-79
2022/02/14 11:13:38;;;;;;;5.32;3.70;;;;;;;25.17;14.03;97988.97;5015551;28;20517;-79
2022/02/14 11:16:05;;;;;;;5.25;3.60;;;;;;;25.95;13.66;97986.72;5011343;28;20033;-79
2022/02/14 11:18:37;;;;;;;9.32;4.00;;;;;;;26.45;13.61;97975.47;5011214;28;20033;-79
2022/02/14 11:21:04;;;;;;;8.00;4.60;;;;;;;25.67;14.06;97976.31;5009357;28;20034;-79
2022/02/14 11:23:40;;;;;;;4.55;3.60;;;;;;;26.17;13.17;97981.22;5009471;28;20041;-79
2022/02/14 11:26:09;;;;;;;5.15;3.60;;;;;;;26.69;13.18;97981.50;5010622;28;20034;-80
2022/02/14 11:29:08;;;;;;;5.68;3.90;;;;;;;26.52;13.32;97968.78;5006399;28;20041;-79
2022/02/14 11:31:35;;;;;;;8.18;4.40;;;;;;;26.24;13.73;97969.72;5001980;28;20034;-79